Time;durP1;ratioP1;P1;durP2;ratioP2;P2;SDS_P1;SDS_P2;PMS_P1;PMS_P2;Temp;Humidity;BMP_temperature;BMP_pressure;BME280_temperature;BME280_humidity;BME280_pressure;Samples;Min_cycle;Max_cycle;Signal;HPM_P1;HPM_P2
2020/12/30 00:01:05;;;;;;;;;;;;;;;16.93;60.53;99771.41;5009805;28;1237;-73
2020/12/30 00:03:33;;;;;;;;;;;;;;;16.94;60.52;99778.34;5008877;28;1232;-74
2020/12/30 00:06:02;;;;;;;;;;;;;;;16.93;60.40;99770.59;5009837;28;967;-72
2020/12/30 00:08:37;;;;;;;;;;;;;;;16.91;60.42;99767.19;5009707;28;1360;-73
2020/12/30 00:11:03;;;;;;;;;;;;;;;16.90;60.66;99784.75;5008019;28;1282;-74
2020/12/30 00:13:32;;;;;;;;;;;;;;;16.92;60.52;99779.41;5008866;28;1907;-74
2020/12/30 00:15:58;;;;;;;;;;;;;;;16.88;60.56;99775.28;5008976;28;1133;-73
2020/12/30 00:18:27;;;;;;;;;;;;;;;16.85;60.76;99771.06;5009206;28;1189;-75
2020/12/30 00:21:12;;;;;;;;;;;;;;;16.86;60.66;99770.13;4993572;28;1263;-73
2020/12/30 00:23:50;;;;;;;;;;;;;;;16.84;60.72;99769.34;5007995;28;1324;-74
2020/12/30 00:26:21;;;;;;;;;;;;;;;16.83;60.76;99765.06;5007959;28;1536;-74
2020/12/30 00:28:50;;;;;;;;;;;;;;;16.83;60.71;99783.47;5012307;28;1092;-73
2020/12/30 00:31:19;;;;;;;;;;;;;;;16.84;60.96;99776.44;5013187;28;1151;-73
2020/12/30 00:33:45;;;;;;;;;;;;;;;16.82;60.92;99773.88;5011639;28;1975;-74
2020/12/30 00:36:13;;;;;;;;;;;;;;;16.89;60.71;99762.03;5011374;28;1137;-73
2020/12/30 00:38:42;;;;;;;;;;;;;;;16.86;60.57;99764.88;5012695;28;1209;-71
2020/12/30 00:41:13;;;;;;;;;;;;;;;16.81;60.71;99761.66;5012456;28;1119;-72
2020/12/30 00:43:40;;;;;;;;;;;;;;;16.79;60.87;99758.31;5012864;28;1321;-72
2020/12/30 00:46:16;;;;;;;;;;;;;;;16.77;60.94;99762.81;4995355;28;1160;-72
2020/12/30 00:48:46;;;;;;;;;;;;;;;16.77;60.68;99754.94;4995246;28;1821;-71
2020/12/30 00:51:13;;;;;;;;;;;;;;;16.74;60.83;99752.50;5010981;28;1200;-72
2020/12/30 00:53:40;;;;;;;;;;;;;;;16.75;60.70;99746.28;5011034;28;1969;-71
2020/12/30 00:56:09;;;;;;;;;;;;;;;16.73;60.72;99748.16;5012549;28;1061;-72
2020/12/30 00:58:36;;;;;;;;;;;;;;;16.71;60.92;99755.31;5012352;28;1555;-71
2020/12/30 01:01:03;;;;;;;;;;;;;;;16.70;60.81;99753.63;5010977;28;892;-73
2020/12/30 01:03:33;;;;;;;;;;;;;;;16.71;60.80;99749.22;5012634;28;1221;-71
2020/12/30 01:06:03;;;;;;;;;;;;;;;16.70;60.75;99748.38;5010747;28;1085;-71
2020/12/30 01:08:29;;;;;;;;;;;;;;;16.67;60.63;99750.34;5010709;28;1311;-72
2020/12/30 01:10:56;;;;;;;;;;;;;;;16.67;60.57;99755.59;5010617;28;1111;-72
2020/12/30 01:13:22;;;;;;;;;;;;;;;16.65;60.81;99744.34;4994430;28;1911;-72
2020/12/30 01:15:49;;;;;;;;;;;;;;;16.66;60.71;99760.00;5012132;28;846;-72
2020/12/30 01:18:15;;;;;;;;;;;;;;;16.65;60.63;99758.34;5010748;28;1225;-72
2020/12/30 01:20:41;;;;;;;;;;;;;;;16.65;60.59;99754.88;5010720;28;834;-73
2020/12/30 01:23:07;;;;;;;;;;;;;;;16.65;60.58;99749.63;5011836;28;1209;-73
2020/12/30 01:25:34;;;;;;;;;;;;;;;16.62;60.49;99766.44;4994172;28;1203;-71
2020/12/30 01:28:00;;;;;;;;;;;;;;;16.62;60.61;99753.28;5010313;28;1294;-72
2020/12/30 01:30:26;;;;;;;;;;;;;;;16.58;60.66;99757.03;5011797;28;798;-72
2020/12/30 01:32:53;;;;;;;;;;;;;;;16.58;60.69;99746.53;5010214;28;1910;-71
2020/12/30 01:35:19;;;;;;;;;;;;;;;16.58;60.47;99737.78;5011797;28;1108;-72
2020/12/30 01:37:46;;;;;;;;;;;;;;;16.56;60.33;99730.00;5010071;28;1259;-72
2020/12/30 01:40:12;;;;;;;;;;;;;;;16.58;60.51;99733.38;5009584;28;1247;-73
2020/12/30 01:42:45;;;;;;;;;;;;;;;16.54;60.37;99744.13;5011511;28;1268;-72
2020/12/30 01:45:12;;;;;;;;;;;;;;;16.55;60.42;99744.09;5010167;28;1283;-72
2020/12/30 01:47:39;;;;;;;;;;;;;;;16.52;60.26;99739.00;5009952;28;1232;-69
2020/12/30 01:50:06;;;;;;;;;;;;;;;16.54;60.29;99744.13;5010160;28;1081;-71
2020/12/30 01:52:32;;;;;;;;;;;;;;;16.54;60.26;99744.13;5011566;28;1906;-70
2020/12/30 01:55:00;;;;;;;;;;;;;;;16.51;60.42;99747.81;4993751;28;1321;-71
2020/12/30 01:57:28;;;;;;;;;;;;;;;16.49;60.27;99754.09;5011133;28;1217;-71
2020/12/30 01:59:54;;;;;;;;;;;;;;;16.49;59.99;99747.06;5011543;28;1171;-70
2020/12/30 02:02:25;;;;;;;;;;;;;;;16.50;60.30;99753.19;5011335;28;1235;-71
2020/12/30 02:04:52;;;;;;;;;;;;;;;16.49;60.16;99749.69;5011523;28;1063;-70
2020/12/30 02:07:19;;;;;;;;;;;;;;;16.48;59.93;99745.38;5009834;28;1241;-71
2020/12/30 02:09:45;;;;;;;;;;;;;;;16.46;60.01;99749.91;5011463;28;1044;-69
2020/12/30 02:12:13;;;;;;;;;;;;;;;16.46;60.08;99760.41;5010669;28;1906;-69
2020/12/30 02:14:39;;;;;;;;;;;;;;;16.45;59.78;99753.44;5010761;28;1060;-69
2020/12/30 02:17:10;;;;;;;;;;;;;;;16.45;59.97;99757.84;5011320;28;1339;-69
2020/12/30 02:19:37;;;;;;;;;;;;;;;16.43;60.12;99760.59;5011323;28;1135;-69
2020/12/30 02:22:04;;;;;;;;;;;;;;;16.44;59.70;99766.72;5010807;28;1206;-69
2020/12/30 02:24:32;;;;;;;;;;;;;;;16.43;59.58;99757.97;5009450;28;1023;-69
2020/12/30 02:26:59;;;;;;;;;;;;;;;16.42;59.50;99767.63;5010800;28;1300;-69
2020/12/30 02:29:26;;;;;;;;;;;;;;;16.40;59.54;99760.78;5010963;28;1087;-71
2020/12/30 02:31:53;;;;;;;;;;;;;;;16.40;59.65;99771.31;5009290;28;1218;-70
2020/12/30 02:34:19;;;;;;;;;;;;;;;16.38;59.38;99757.44;5010960;28;1906;-70
2020/12/30 02:36:45;;;;;;;;;;;;;;;16.36;59.50;99757.50;5010540;28;1173;-70
2020/12/30 02:39:11;;;;;;;;;;;;;;;16.37;59.14;99769.72;5009093;28;1072;-69
2020/12/30 02:41:38;;;;;;;;;;;;;;;16.37;59.23;99760.97;5010350;28;1225;-69
2020/12/30 02:44:05;;;;;;;;;;;;;;;16.36;59.12;99754.03;5010695;28;1037;-69
2020/12/30 02:46:31;;;;;;;;;;;;;;;16.37;59.14;99766.25;5010350;28;1229;-69
2020/12/30 02:48:58;;;;;;;;;;;;;;;16.33;59.12;99773.47;5008952;28;1055;-70
2020/12/30 02:51:24;;;;;;;;;;;;;;;16.32;59.19;99784.91;5008090;28;1209;-69
2020/12/30 02:53:50;;;;;;;;;;;;;;;16.31;59.18;99782.38;5008643;28;1973;-70
2020/12/30 02:56:17;;;;;;;;;;;;;;;16.29;58.93;99779.84;5010193;28;774;-71
2020/12/30 02:58:44;;;;;;;;;;;;;;;16.22;59.09;99777.69;5010644;28;1281;-71
2020/12/30 03:01:11;;;;;;;;;;;;;;;16.28;59.17;99793.94;5008711;28;775;-69
2020/12/30 03:03:38;;;;;;;;;;;;;;;16.27;59.16;99807.16;5008769;28;1213;-70
2020/12/30 03:06:04;;;;;;;;;;;;;;;16.26;59.07;99805.50;5008667;28;981;-71
2020/12/30 03:08:31;;;;;;;;;;;;;;;16.27;59.16;99804.53;5009897;28;1296;-70
2020/12/30 03:10:57;;;;;;;;;;;;;;;16.24;59.17;99821.34;5008478;28;1092;-70
2020/12/30 03:13:24;;;;;;;;;;;;;;;16.25;59.35;99815.16;5009765;28;1906;-70
2020/12/30 03:15:50;;;;;;;;;;;;;;;16.23;59.13;99811.75;5009928;28;833;-70
2020/12/30 03:18:16;;;;;;;;;;;;;;;16.22;59.16;99817.13;5009770;28;1253;-69
2020/12/30 03:20:42;;;;;;;;;;;;;;;16.22;59.20;99820.59;5009797;28;1092;-70
2020/12/30 03:23:08;;;;;;;;;;;;;;;16.21;59.15;99831.19;5009650;28;1300;-69
2020/12/30 03:25:35;;;;;;;;;;;;;;;16.22;59.16;99825.00;5009627;28;1155;-71
2020/12/30 03:28:01;;;;;;;;;;;;;;;16.19;59.31;99839.16;5009762;28;1217;-70
2020/12/30 03:30:27;;;;;;;;;;;;;;;16.20;59.08;99824.25;5008392;28;1212;-68
2020/12/30 03:32:53;;;;;;;;;;;;;;;16.19;59.49;99830.44;5008286;28;1910;-68
2020/12/30 03:35:24;;;;;;;;;;;;;;;16.17;59.17;99830.50;5009843;28;823;-70
2020/12/30 03:37:52;;;;;;;;;;;;;;;16.17;59.42;99833.13;5008222;28;1297;-69
2020/12/30 03:40:18;;;;;;;;;;;;;;;16.16;59.44;99831.47;5009606;28;791;-70
2020/12/30 03:42:44;;;;;;;;;;;;;;;16.18;59.58;99847.13;5009475;28;1257;-69
2020/12/30 03:45:10;;;;;;;;;;;;;;;16.17;59.14;99854.16;5009672;28;1035;-70
2020/12/30 03:47:36;;;;;;;;;;;;;;;16.15;59.16;99855.19;5008197;28;1268;-70
2020/12/30 03:50:03;;;;;;;;;;;;;;;16.13;59.24;99847.41;5008209;28;1299;-71
2020/12/30 03:52:29;;;;;;;;;;;;;;;16.12;59.53;99847.50;5007971;28;1988;-70
2020/12/30 03:54:56;;;;;;;;;;;;;;;16.12;59.41;99861.50;5007749;28;1196;-70
2020/12/30 03:57:22;;;;;;;;;;;;;;;16.12;59.32;99855.38;5009280;28;1319;-70
2020/12/30 03:59:48;;;;;;;;;;;;;;;16.12;59.61;99866.75;5009840;28;1183;-71
2020/12/30 04:02:14;;;;;;;;;;;;;;;16.10;59.52;99875.66;5009767;28;1339;-72
2020/12/30 04:04:41;;;;;;;;;;;;;;;16.10;59.69;99873.03;5008111;28;1006;-71
2020/12/30 04:07:07;;;;;;;;;;;;;;;16.09;59.68;99877.44;5009204;28;1225;-72
2020/12/30 04:09:34;;;;;;;;;;;;;;;16.10;59.49;99880.91;4992014;28;1223;-71
2020/12/30 04:12:00;;;;;;;;;;;;;;;16.09;59.68;99882.69;5009156;28;1230;-72
2020/12/30 04:14:26;;;;;;;;;;;;;;;16.08;59.93;99885.41;5008078;28;1911;-70
2020/12/30 04:16:53;;;;;;;;;;;;;;;16.07;59.78;99895.06;5009170;28;1225;-70
2020/12/30 04:19:20;;;;;;;;;;;;;;;16.08;59.85;99895.94;5007857;28;1310;-69
2020/12/30 04:21:46;;;;;;;;;;;;;;;16.06;59.90;99892.53;5007812;28;1343;-69
2020/12/30 04:24:12;;;;;;;;;;;;;;;16.07;59.75;99899.47;5008903;28;1044;-69
2020/12/30 04:26:38;;;;;;;;;;;;;;;16.04;59.75;99899.66;5009147;28;1233;-70
2020/12/30 04:29:04;;;;;;;;;;;;;;;16.06;59.90;99913.53;5009171;28;1076;-71
2020/12/30 04:31:31;;;;;;;;;;;;;;;16.04;59.98;99905.75;5007785;28;1225;-71
2020/12/30 04:33:57;;;;;;;;;;;;;;;16.04;59.87;99915.44;5007655;28;1988;-71
2020/12/30 04:36:23;;;;;;;;;;;;;;;16.04;59.70;99915.44;5008951;28;1158;-72
2020/12/30 04:38:49;;;;;;;;;;;;;;;16.02;59.90;99915.50;5009374;28;1050;-72
2020/12/30 04:41:16;;;;;;;;;;;;;;;16.01;59.82;99907.72;5008962;28;1060;-72
2020/12/30 04:43:43;;;;;;;;;;;;;;;16.01;59.89;99915.59;5007437;28;1250;-72
2020/12/30 04:46:13;;;;;;;;;;;;;;;16.00;59.85;99908.66;5008879;28;771;-72
2020/12/30 04:48:40;;;;;;;;;;;;;;;16.00;59.93;99911.28;5008875;28;1233;-72
2020/12/30 04:51:06;;;;;;;;;;;;;;;16.00;60.07;99908.66;4990990;28;1532;-72
2020/12/30 04:53:34;;;;;;;;;;;;;;;15.98;59.99;99906.13;5008647;28;2015;-71
2020/12/30 04:56:00;;;;;;;;;;;;;;;15.98;60.14;99900.03;5007459;28;823;-72
2020/12/30 04:58:28;;;;;;;;;;;;;;;15.98;59.97;99913.16;5007261;28;1462;-72
2020/12/30 05:00:55;;;;;;;;;;;;;;;15.97;59.83;99908.81;5008659;28;821;-72
2020/12/30 05:03:27;;;;;;;;;;;;;;;15.97;59.78;99900.94;5008919;28;1265;-71
2020/12/30 05:05:54;;;;;;;;;;;;;;;15.96;59.96;99913.22;5009147;28;794;-72
2020/12/30 05:08:20;;;;;;;;;;;;;;;15.96;59.77;99907.16;5008798;28;1304;-72
2020/12/30 05:10:52;;;;;;;;;;;;;;;15.94;60.09;99909.84;5007105;28;1279;-71
2020/12/30 05:13:21;;;;;;;;;;;;;;;15.94;59.98;99909.00;5007153;28;1914;-71
2020/12/30 05:15:47;;;;;;;;;;;;;;;15.94;59.69;99909.84;5010105;28;1462;-72
2020/12/30 05:18:14;;;;;;;;;;;;;;;15.93;59.91;99909.97;5010621;28;1476;-70
2020/12/30 05:20:40;;;;;;;;;;;;;;;15.94;59.87;99919.50;5011834;28;1147;-71
2020/12/30 05:23:06;;;;;;;;;;;;;;;15.91;59.83;99923.16;5010572;28;1343;-72
2020/12/30 05:25:34;;;;;;;;;;;;;;;15.92;59.64;99916.13;4994709;28;1231;-72
2020/12/30 05:28:02;;;;;;;;;;;;;;;15.92;59.56;99916.13;5010798;28;1336;-72
2020/12/30 05:30:29;;;;;;;;;;;;;;;15.90;59.53;99923.28;5012264;28;969;-73
2020/12/30 05:32:55;;;;;;;;;;;;;;;15.89;59.57;99922.41;5010233;28;1910;-72
2020/12/30 05:35:21;;;;;;;;;;;;;;;15.88;59.67;99941.72;5012118;28;826;-73
2020/12/30 05:37:48;;;;;;;;;;;;;;;15.89;59.55;99932.06;5010324;28;1322;-70
2020/12/30 05:40:19;;;;;;;;;;;;;;;15.89;59.72;99951.31;5010003;28;1246;-71
2020/12/30 05:42:45;;;;;;;;;;;;;;;15.87;59.46;99960.22;4993680;28;1275;-71
2020/12/30 05:45:16;;;;;;;;;;;;;;;15.85;59.46;99948.00;5009654;28;1156;-72
2020/12/30 05:47:42;;;;;;;;;;;;;;;15.85;59.54;99962.91;5011439;28;1277;-72
2020/12/30 05:50:12;;;;;;;;;;;;;;;15.85;59.69;99974.28;5011231;28;1387;-72
2020/12/30 05:52:39;;;;;;;;;;;;;;;15.84;59.80;99985.69;5011237;28;1914;-72
2020/12/30 05:55:09;;;;;;;;;;;;;;;15.85;59.73;99987.41;5009994;28;1310;-72
2020/12/30 05:57:37;;;;;;;;;;;;;;;15.83;59.79;99996.31;5011077;28;1251;-72
2020/12/30 06:00:05;;;;;;;;;;;;;;;15.82;59.72;100005.97;5010000;28;1279;-72
2020/12/30 06:02:32;;;;;;;;;;;;;;;15.82;59.80;100020.88;5010167;28;1323;-72
2020/12/30 06:05:08;;;;;;;;;;;;;;;15.82;59.88;100041.88;5011540;28;1163;-72
2020/12/30 06:07:48;;;;;;;;;;;;;;;15.81;59.79;100050.69;5011033;28;1217;-73
2020/12/30 06:10:16;;;;;;;;;;;;;;;15.80;59.92;100059.50;5009571;28;933;-73
2020/12/30 06:12:51;;;;;;;;;;;;;;;15.80;60.10;100067.38;5011012;28;1914;-72
2020/12/30 06:15:19;;;;;;;;;;;;;;;15.79;60.17;100063.91;4993123;28;1250;-72
2020/12/30 06:17:55;;;;;;;;;;;;;;;15.79;59.90;100068.31;5010696;28;1332;-71
2020/12/30 06:20:32;;;;;;;;;;;;;;;15.79;59.67;100073.56;5010772;28;929;-72
2020/12/30 06:23:07;;;;;;;;;;;;;;;15.79;59.84;100076.19;5010676;28;1252;-73
2020/12/30 06:25:34;;;;;;;;;;;;;;;15.78;60.17;100077.09;5009240;28;1233;-73
2020/12/30 06:28:21;;;;;;;;;;;;;;;15.77;59.90;100081.53;5010597;28;1320;-70
2020/12/30 06:30:50;;;;;;;;;;;;;;;15.75;59.91;100083.38;5010685;28;1112;-71
2020/12/30 06:33:21;;;;;;;;;;;;;;;15.76;60.00;100081.59;5010614;28;1906;-71
2020/12/30 06:35:53;;;;;;;;;;;;;;;15.74;59.93;100084.34;5009419;28;834;-70
2020/12/30 06:38:20;;;;;;;;;;;;;;;15.74;59.97;100092.22;5010895;28;1255;-70
2020/12/30 06:41:05;;;;;;;;;;;;;;;15.73;59.97;100094.91;5010409;28;830;-70
2020/12/30 06:43:44;;;;;;;;;;;;;;;15.74;59.90;100099.22;5010559;28;1336;-69
2020/12/30 06:46:10;;;;;;;;;;;;;;;15.71;59.94;100087.13;5010237;28;1278;-70
2020/12/30 06:48:52;;;;;;;;;;;;;;;15.71;59.85;100081.88;5009119;28;1320;-69
2020/12/30 06:51:18;;;;;;;;;;;;;;;15.71;60.13;100094.16;5010863;28;854;-73
2020/12/30 06:53:48;;;;;;;;;;;;;;;15.71;59.92;100100.25;5010324;28;1934;-73
2020/12/30 06:56:15;;;;;;;;;;;;;;;15.70;59.98;100087.19;5009061;28;976;-74
2020/12/30 06:58:46;;;;;;;;;;;;;;;15.69;60.07;100088.97;5008338;28;1264;-73
2020/12/30 07:01:17;;;;;;;;;;;;;;;15.84;59.70;100077.63;5010234;28;1205;-72
2020/12/30 07:03:43;;;;;;;;;;;;;;;15.79;59.96;100090.16;5009629;28;1316;-73
2020/12/30 07:06:35;;;;;;;;;;;;;;;15.77;59.99;100113.06;5010200;28;1320;-73
2020/12/30 07:09:06;;;;;;;;;;;;;;;15.75;60.25;100122.78;5008408;28;1595;-74
2020/12/30 07:11:36;;;;;;;;;;;;;;;15.74;60.14;100123.72;5008676;28;1307;-73
2020/12/30 07:14:15;;;;;;;;;;;;;;;15.74;60.34;100123.72;5010444;28;1977;-79
2020/12/30 07:16:47;;;;;;;;;;;;;;;15.75;60.17;100133.28;4992102;28;1233;-73
2020/12/30 07:19:14;;;;;;;;;;;;;;;15.74;60.30;100136.84;5010005;28;1043;-76
2020/12/30 07:21:47;;;;;;;;;;;;;;;15.74;60.68;100136.00;5009522;28;1359;-72
2020/12/30 07:24:21;;;;;;;;;;;;;;;15.75;60.33;100146.41;5010214;28;1062;-72
2020/12/30 07:26:49;;;;;;;;;;;;;;;15.74;60.27;100139.47;5009888;28;1233;-73
2020/12/30 07:29:16;;;;;;;;;;;;;;;15.74;60.58;100143.88;5008234;28;1238;-72
2020/12/30 07:31:46;;;;;;;;;;;;;;;15.73;60.59;100163.19;5008265;28;1341;-71
2020/12/30 07:34:19;;;;;;;;;;;;;;;15.74;60.53;100173.63;5009717;28;1915;-70
2020/12/30 07:36:46;;;;;;;;;;;;;;;15.72;60.67;100177.22;5008928;28;1347;-70
2020/12/30 07:39:13;;;;;;;;;;;;;;;15.73;60.33;100179.78;5009489;28;1136;-71
2020/12/30 07:41:43;;;;;;;;;;;;;;;15.73;60.40;100182.41;5009528;28;1237;-71
2020/12/30 07:44:10;;;;;;;;;;;;;;;15.71;60.32;100194.78;5007979;28;1365;-73
2020/12/30 07:46:37;;;;;;;;;;;;;;;15.71;60.22;100213.16;4991656;28;1327;-74
2020/12/30 07:49:13;;;;;;;;;;;;;;;15.71;60.54;100212.31;5009280;28;911;-71
2020/12/30 07:52:05;;;;;;;;;;;;;;;15.69;60.46;100204.50;5009609;28;1326;-75
2020/12/30 07:54:35;;;;;;;;;;;;;;;15.70;60.42;100206.22;5007161;28;1918;-75
2020/12/30 07:57:26;;;;;;;;;;;;;;;15.69;60.47;100204.50;5000450;28;1554;-74
2020/12/30 08:00:01;;;;;;;;;;;;;;;15.68;60.67;100202.81;5010008;28;964;-76
2020/12/30 08:02:30;;;;;;;;;;;;;;;15.69;60.62;100204.50;5008133;28;1245;-72
2020/12/30 08:05:06;;;;;;;;;;;;;;;15.58;56.68;100200.75;4994848;28;1178;-75
2020/12/30 08:07:33;;;;;;;;;;;;;;;15.28;52.34;100198.75;4991503;28;1265;-73
2020/12/30 08:09:59;;;;;;;;;;;;;;;15.57;59.45;100189.38;5009298;28;1209;-70
2020/12/30 08:12:28;;;;;;;;;;;;;;;14.92;53.06;100197.97;5008781;28;1308;-74
2020/12/30 08:14:54;;;;;;;;;;;;;;;15.18;53.40;100187.00;5008588;28;1910;-73
2020/12/30 08:17:21;;;;;;;;;;;;;;;15.48;58.57;100179.38;4991028;28;1268;-75
2020/12/30 08:20:07;;;;;;;;;;;;;;;15.64;59.46;100185.53;5005763;28;1082;-76
2020/12/30 08:22:42;;;;;;;;;;;;;;;15.80;58.75;100199.56;5007716;28;1273;-73
2020/12/30 08:25:46;;;;;;;;;;;;;;;16.00;57.80;100189.72;5008393;28;910;-72
2020/12/30 08:28:19;;;;;;;;;;;;;;;16.28;56.36;100193.41;5005665;28;1814;-73
2020/12/30 08:30:46;;;;;;;;;;;;;;;16.46;56.50;100181.00;5008859;28;846;-72
2020/12/30 08:33:13;;;;;;;;;;;;;;;16.57;56.58;100191.81;5007305;28;1980;-73
2020/12/30 08:35:45;;;;;;;;;;;;;;;16.73;56.71;100197.91;5008546;28;802;-73
2020/12/30 08:38:12;;;;;;;;;;;;;;;16.83;56.72;100203.47;5007383;28;1376;-77
2020/12/30 08:40:40;;;;;;;;;;;;;;;16.99;56.17;100195.56;5008803;28;810;-73
2020/12/30 08:43:12;;;;;;;;;;;;;;;17.09;56.44;100210.72;5007206;28;1241;-72
2020/12/30 08:45:41;;;;;;;;;;;;;;;17.26;55.77;100215.84;5008985;28;809;-74
2020/12/30 08:48:11;;;;;;;;;;;;;;;17.41;55.63;100211.47;5008625;28;1301;-72
2020/12/30 08:50:37;;;;;;;;;;;;;;;17.44;55.78;100208.63;5011638;28;1205;-72
2020/12/30 08:53:03;;;;;;;;;;;;;;;17.46;55.46;100217.28;5010520;28;1906;-72
2020/12/30 08:55:29;;;;;;;;;;;;;;;17.50;55.45;100229.34;5012313;28;786;-71
2020/12/30 08:57:57;;;;;;;;;;;;;;;17.56;54.97;100255.34;5012182;28;1362;-70
2020/12/30 09:00:24;;;;;;;;;;;;;;;17.65;55.11;100249.53;5010649;28;1566;-71
2020/12/30 09:02:51;;;;;;;;;;;;;;;17.69;55.49;100253.66;5012438;28;1217;-72
2020/12/30 09:05:27;;;;;;;;;;;;;;;17.71;55.23;100262.31;5012094;28;862;-71
2020/12/30 09:07:53;;;;;;;;;;;;;;;17.74;55.18;100264.78;5010654;28;1213;-73
2020/12/30 09:10:20;;;;;;;;;;;;;;;17.77;55.15;100259.31;5011977;28;988;-73
2020/12/30 09:12:47;;;;;;;;;;;;;;;17.79;55.02;100273.25;5012001;28;1934;-72
2020/12/30 09:15:19;;;;;;;;;;;;;;;17.85;54.85;100280.78;5010585;28;1063;-74
2020/12/30 09:17:57;;;;;;;;;;;;;;;17.86;54.82;100285.13;5010621;28;1233;-72
2020/12/30 09:20:30;;;;;;;;;;;;;;;17.89;54.96;100298.09;5010750;28;1096;-73
2020/12/30 09:23:01;;;;;;;;;;;;;;;17.90;54.83;100305.03;5012049;28;1261;-74
2020/12/30 09:25:29;;;;;;;;;;;;;;;17.90;54.74;100318.22;5010505;28;1148;-75
2020/12/30 09:27:57;;;;;;;;;;;;;;;17.92;54.59;100336.59;5011700;28;1296;-75
2020/12/30 09:30:25;;;;;;;;;;;;;;;17.94;54.79;100324.16;4994168;28;1184;-75
2020/12/30 09:32:53;;;;;;;;;;;;;;;17.96;54.69;100336.31;5010326;28;1979;-73
2020/12/30 09:35:25;;;;;;;;;;;;;;;18.00;54.69;100332.56;5011684;28;1050;-70
2020/12/30 09:37:52;;;;;;;;;;;;;;;18.01;54.67;100334.25;5011324;28;1268;-71
2020/12/30 09:40:18;;;;;;;;;;;;;;;18.02;54.76;100338.56;5011790;28;1056;-73
2020/12/30 09:42:46;;;;;;;;;;;;;;;18.04;54.80;100349.03;5010012;28;1221;-72
2020/12/30 09:45:16;;;;;;;;;;;;;;;18.12;54.92;100345.94;5010174;28;1164;-72
2020/12/30 09:47:42;;;;;;;;;;;;;;;18.16;54.59;100350.06;5009854;28;1323;-74
2020/12/30 09:50:10;;;;;;;;;;;;;;;18.20;54.58;100356.88;5011305;28;894;-72
2020/12/30 09:52:44;;;;;;;;;;;;;;;18.19;54.79;100350.75;5011424;28;1240;-70
2020/12/30 09:55:11;;;;;;;;;;;;;;;18.14;54.83;100357.25;5011264;28;2043;-70
2020/12/30 09:57:37;;;;;;;;;;;;;;;18.20;54.63;100364.78;5010781;28;1279;-72
2020/12/30 10:00:06;;;;;;;;;;;;;;;18.16;54.83;100357.97;5010860;28;936;-71
2020/12/30 10:02:32;;;;;;;;;;;;;;;18.14;54.83;100365.16;5009520;28;1220;-71
2020/12/30 10:04:59;;;;;;;;;;;;;;;18.15;54.93;100362.41;5011253;28;1026;-71
2020/12/30 10:07:26;;;;;;;;;;;;;;;18.10;54.76;100363.63;5009610;28;1293;-72
2020/12/30 10:09:52;;;;;;;;;;;;;;;18.10;55.38;100350.44;5011141;28;1140;-73
2020/12/30 10:12:20;;;;;;;;;;;;;;;18.06;55.51;100359.47;4992723;28;1346;-70
2020/12/30 10:14:46;;;;;;;;;;;;;;;18.08;55.46;100347.06;5011008;28;2016;-76
2020/12/30 10:17:12;;;;;;;;;;;;;;;18.06;55.61;100335.75;5009450;28;1263;-72
2020/12/30 10:19:39;;;;;;;;;;;;;;;18.07;55.63;100334.81;5011015;28;1136;-72
2020/12/30 10:22:06;;;;;;;;;;;;;;;18.08;57.83;100347.91;5010822;28;1279;-72
2020/12/30 10:24:32;;;;;;;;;;;;;;;18.13;58.44;100334.44;5009322;28;1270;-70
2020/12/30 10:26:59;;;;;;;;;;;;;;;18.19;58.86;100350.75;5010648;28;1209;-71
2020/12/30 10:29:28;;;;;;;;;;;;;;;18.26;59.33;100348.59;5010608;28;1038;-71
2020/12/30 10:31:55;;;;;;;;;;;;;;;18.29;59.18;100330.78;5010468;28;1229;-69
2020/12/30 10:34:22;;;;;;;;;;;;;;;18.30;58.96;100331.66;5010390;28;1918;-72
2020/12/30 10:36:49;;;;;;;;;;;;;;;18.38;59.37;100340.78;5010358;28;1312;-70
2020/12/30 10:39:15;;;;;;;;;;;;;;;18.44;59.05;100337.75;5010597;28;1114;-68
2020/12/30 10:41:42;;;;;;;;;;;;;;;18.42;59.07;100325.63;5010508;28;1236;-72
2020/12/30 10:44:08;;;;;;;;;;;;;;;18.45;59.42;100325.44;5008952;28;1235;-76
2020/12/30 10:46:36;;;;;;;;;;;;;;;18.51;59.39;100319.81;5009996;28;1324;-70
2020/12/30 10:49:03;;;;;;;;;;;;;;;18.52;58.94;100326.75;5010160;28;957;-69
2020/12/30 10:51:29;;;;;;;;;;;;;;;18.58;59.62;100323.72;5010049;28;1338;-67
2020/12/30 10:53:56;;;;;;;;;;;;;;;18.61;59.10;100334.09;5009943;28;1965;-77
2020/12/30 10:56:23;;;;;;;;;;;;;;;18.60;59.14;100321.88;4992470;28;1496;-73
2020/12/30 10:58:54;;;;;;;;;;;;;;;18.61;58.55;100320.03;4993057;28;1464;-72
2020/12/30 11:01:21;;;;;;;;;;;;;;;18.62;58.45;100309.41;5009713;28;849;-70
2020/12/30 11:03:47;;;;;;;;;;;;;;;18.68;58.86;100316.94;5009871;28;1414;-69
2020/12/30 11:06:14;;;;;;;;;;;;;;;18.74;58.38;100313.06;5009684;28;830;-70
2020/12/30 11:08:40;;;;;;;;;;;;;;;18.84;58.09;100319.47;5009776;28;1331;-75
2020/12/30 11:11:06;;;;;;;;;;;;;;;18.68;58.59;100301.13;5008267;28;1001;-76
2020/12/30 11:13:33;;;;;;;;;;;;;;;18.55;58.69;100302.81;5007974;28;1986;-74
2020/12/30 11:15:59;;;;;;;;;;;;;;;18.50;58.90;100312.81;5008344;28;984;-74
2020/12/30 11:18:25;;;;;;;;;;;;;;;18.45;58.80;100318.34;5008081;28;1166;-75
2020/12/30 11:20:51;;;;;;;;;;;;;;;18.47;58.93;100318.25;5007266;28;1065;-74
2020/12/30 11:23:17;;;;;;;;;;;;;;;18.46;58.78;100321.81;5009832;28;1256;-75
2020/12/30 11:25:44;;;;;;;;;;;;;;;18.43;58.74;100319.38;5009450;28;1046;-75
2020/12/30 11:28:10;;;;;;;;;;;;;;;18.42;58.99;100315.06;5007760;28;1330;-75
2020/12/30 11:30:37;;;;;;;;;;;;;;;18.43;58.57;100314.09;5007994;28;1234;-77
2020/12/30 11:33:03;;;;;;;;;;;;;;;18.44;58.47;100318.44;4991396;28;1894;-75
2020/12/30 11:35:30;;;;;;;;;;;;;;;18.42;58.65;100307.16;5009174;28;806;-75
2020/12/30 11:37:56;;;;;;;;;;;;;;;18.42;58.51;100320.34;5008087;28;1276;-76
2020/12/30 11:40:23;;;;;;;;;;;;;;;18.43;58.17;100329.94;5009248;28;1136;-77
2020/12/30 11:42:49;;;;;;;;;;;;;;;18.44;58.19;100331.63;5007873;28;1640;-78
2020/12/30 11:45:15;;;;;;;;;;;;;;;18.42;58.22;100315.06;4991968;28;1078;-77
2020/12/30 11:47:42;;;;;;;;;;;;;;;18.40;58.18;100322.22;5009125;28;1162;-77
2020/12/30 11:50:14;;;;;;;;;;;;;;;18.41;57.95;100318.63;4992208;28;950;-77
2020/12/30 11:52:45;;;;;;;;;;;;;;;18.42;57.85;100330.91;4991493;28;1628;-75
2020/12/30 11:55:14;;;;;;;;;;;;;;;18.42;57.89;100328.25;5007786;28;1929;-76
2020/12/30 11:57:41;;;;;;;;;;;;;;;18.40;57.87;100316.94;5008900;28;1399;-75
2020/12/30 12:00:08;;;;;;;;;;;;;;;18.42;57.67;100312.44;5007800;28;1183;-75
2020/12/30 12:02:34;;;;;;;;;;;;;;;18.43;57.54;100322.03;5009577;28;1225;-74
2020/12/30 12:05:04;;;;;;;;;;;;;;;18.42;57.61;100312.44;4991355;28;1326;-74
2020/12/30 12:07:33;;;;;;;;;;;;;;;18.38;57.82;100308.28;5009252;28;1143;-75
2020/12/30 12:10:03;;;;;;;;;;;;;;;18.39;57.49;100308.16;5009040;28;847;-74
2020/12/30 12:12:33;;;;;;;;;;;;;;;18.41;57.61;100303.66;5009392;28;1181;-75
2020/12/30 12:15:00;;;;;;;;;;;;;;;18.40;57.50;100301.97;5007992;28;1981;-75
2020/12/30 12:17:26;;;;;;;;;;;;;;;18.39;57.56;100299.44;5009232;28;1225;-75
2020/12/30 12:19:52;;;;;;;;;;;;;;;18.41;57.60;100313.38;5008670;28;1214;-75
2020/12/30 12:22:18;;;;;;;;;;;;;;;18.39;57.37;100315.25;5007765;28;1205;-76
2020/12/30 12:24:45;;;;;;;;;;;;;;;18.38;57.53;100318.84;5012392;28;802;-76
2020/12/30 12:27:14;;;;;;;;;;;;;;;18.39;57.53;100312.63;5011711;28;1173;-73
2020/12/30 12:29:41;;;;;;;;;;;;;;;18.39;57.03;100316.09;5012752;28;1055;-76
2020/12/30 12:32:07;;;;;;;;;;;;;;;18.41;57.15;100313.38;5011421;28;1210;-74
2020/12/30 12:34:36;;;;;;;;;;;;;;;18.40;57.29;100317.78;4994949;28;1918;-73
2020/12/30 12:37:03;;;;;;;;;;;;;;;18.37;57.20;100317.13;5010860;28;1287;-76
2020/12/30 12:39:30;;;;;;;;;;;;;;;18.37;57.27;100327.66;5012755;28;1000;-77
2020/12/30 12:41:58;;;;;;;;;;;;;;;18.45;56.04;100334.16;5010852;28;1466;-72
2020/12/30 12:44:25;;;;;;;;;;;;;;;18.45;56.57;100335.97;5012852;28;853;-70
2020/12/30 12:46:51;;;;;;;;;;;;;;;18.54;56.18;100340.72;5012673;28;1248;-70
2020/12/30 12:49:17;;;;;;;;;;;;;;;18.58;55.32;100339.56;5011128;28;1240;-66
2020/12/30 12:51:51;;;;;;;;;;;;;;;18.71;55.55;100351.06;5012636;28;1204;-70
2020/12/30 12:54:30;;;;;;;;;;;;;;;18.69;55.59;100320.44;5012431;28;1980;-74
2020/12/30 12:57:08;;;;;;;;;;;;;;;18.69;54.60;100318.66;5011745;28;1373;-77
2020/12/30 12:59:34;;;;;;;;;;;;;;;18.66;53.33;100318.84;5012417;28;799;-75